Terminal Aerodrome Forecast
Issued by NWS

Home | Current Version | Previous Version | Text Only | Print | Product List | Glossary On
Versions: 1 2 3 4 5 6 7 8 9 10 11 12 13 14 15 16 17 18 19 20 21 22 23
000
FTUS44 KLIX 301524 AAB
TAFGPT
TAF AMD
KGPT 301524Z 3015/3112 16010KT P6SM SCT013 BKN026
      TEMPO 3015/3018 VRB20G30KT 1SM TSRA OVC015CB
     FM301800 17012G20KT 6SM -RA SCT025 OVC040
     FM302100 19011KT P6SM OVC050
     FM310100 19008KT P6SM BKN070
     FM310400 25008KT P6SM SCT045
     FM310800 29007KT P6SM FEW150=

USA.gov is the U.S. government's official web portal to all federal, state and local government web resources and services.